sensor_id;sensor_type;location;lat;lon;timestamp;P1;durP1;ratioP1;P2;durP2;ratioP2
23113;SDS011;11726;50.122;8.832;2023-02-11T00:01:06;59.10;;;35.22;;
23113;SDS011;11726;50.122;8.832;2023-02-11T00:03:42;61.05;;;35.20;;
23113;SDS011;11726;50.122;8.832;2023-02-11T00:06:09;63.55;;;35.90;;
23113;SDS011;11726;50.122;8.832;2023-02-11T00:08:37;59.47;;;35.05;;
23113;SDS011;11726;50.122;8.832;2023-02-11T00:11:04;60.15;;;36.88;;
23113;SDS011;11726;50.122;8.832;2023-02-11T00:13:31;56.70;;;32.63;;
23113;SDS011;11726;50.122;8.832;2023-02-11T00:15:57;57.47;;;33.90;;
23113;SDS011;11726;50.122;8.832;2023-02-11T00:18:24;59.92;;;35.67;;
23113;SDS011;11726;50.122;8.832;2023-02-11T00:20:50;66.55;;;37.20;;
23113;SDS011;11726;50.122;8.832;2023-02-11T00:23:17;64.85;;;37.47;;
23113;SDS011;11726;50.122;8.832;2023-02-11T00:25:44;70.45;;;38.72;;
23113;SDS011;11726;50.122;8.832;2023-02-11T00:28:11;64.82;;;38.00;;
23113;SDS011;11726;50.122;8.832;2023-02-11T00:30:38;66.43;;;39.10;;
23113;SDS011;11726;50.122;8.832;2023-02-11T00:33:05;64.80;;;39.30;;
23113;SDS011;11726;50.122;8.832;2023-02-11T00:35:32;63.75;;;37.45;;
23113;SDS011;11726;50.122;8.832;2023-02-11T00:37:58;66.40;;;39.42;;
23113;SDS011;11726;50.122;8.832;2023-02-11T00:40:25;66.38;;;39.10;;
23113;SDS011;11726;50.122;8.832;2023-02-11T00:42:52;63.72;;;36.97;;
23113;SDS011;11726;50.122;8.832;2023-02-11T00:45:19;69.45;;;39.30;;
23113;SDS011;11726;50.122;8.832;2023-02-11T00:47:46;68.22;;;38.78;;
23113;SDS011;11726;50.122;8.832;2023-02-11T00:50:13;66.85;;;38.50;;
23113;SDS011;11726;50.122;8.832;2023-02-11T00:52:39;67.45;;;39.72;;
23113;SDS011;11726;50.122;8.832;2023-02-11T00:55:06;67.47;;;40.03;;
23113;SDS011;11726;50.122;8.832;2023-02-11T00:57:33;65.18;;;38.53;;
23113;SDS011;11726;50.122;8.832;2023-02-11T01:00:00;66.13;;;39.28;;
23113;SDS011;11726;50.122;8.832;2023-02-11T01:02:26;61.63;;;36.90;;
23113;SDS011;11726;50.122;8.832;2023-02-11T01:04:53;66.15;;;38.25;;
23113;SDS011;11726;50.122;8.832;2023-02-11T01:07:19;66.90;;;40.15;;
23113;SDS011;11726;50.122;8.832;2023-02-11T01:09:46;72.15;;;40.03;;
23113;SDS011;11726;50.122;8.832;2023-02-11T01:12:12;69.03;;;39.45;;
23113;SDS011;11726;50.122;8.832;2023-02-11T01:14:39;67.95;;;40.38;;
23113;SDS011;11726;50.122;8.832;2023-02-11T01:17:06;63.78;;;38.03;;
23113;SDS011;11726;50.122;8.832;2023-02-11T01:19:32;69.70;;;40.10;;
23113;SDS011;11726;50.122;8.832;2023-02-11T01:21:59;66.72;;;39.83;;
23113;SDS011;11726;50.122;8.832;2023-02-11T01:24:26;63.70;;;39.10;;
23113;SDS011;11726;50.122;8.832;2023-02-11T01:26:53;61.95;;;37.83;;
23113;SDS011;11726;50.122;8.832;2023-02-11T01:29:20;67.55;;;39.65;;
23113;SDS011;11726;50.122;8.832;2023-02-11T01:31:46;68.80;;;39.22;;
23113;SDS011;11726;50.122;8.832;2023-02-11T01:34:13;66.90;;;39.60;;
23113;SDS011;11726;50.122;8.832;2023-02-11T01:36:40;70.57;;;40.58;;
23113;SDS011;11726;50.122;8.832;2023-02-11T01:39:07;70.60;;;40.63;;
23113;SDS011;11726;50.122;8.832;2023-02-11T01:41:34;63.90;;;37.65;;
23113;SDS011;11726;50.122;8.832;2023-02-11T01:44:21;65.35;;;38.53;;
23113;SDS011;11726;50.122;8.832;2023-02-11T01:46:49;65.07;;;38.58;;
23113;SDS011;11726;50.122;8.832;2023-02-11T01:49:20;67.30;;;39.60;;
23113;SDS011;11726;50.122;8.832;2023-02-11T01:51:54;66.40;;;39.05;;
23113;SDS011;11726;50.122;8.832;2023-02-11T01:54:29;75.03;;;41.58;;
23113;SDS011;11726;50.122;8.832;2023-02-11T01:57:23;64.43;;;37.60;;
23113;SDS011;11726;50.122;8.832;2023-02-11T02:00:06;67.82;;;40.42;;
23113;SDS011;11726;50.122;8.832;2023-02-11T02:02:48;67.72;;;37.88;;
23113;SDS011;11726;50.122;8.832;2023-02-11T02:08:13;71.00;;;40.75;;
23113;SDS011;11726;50.122;8.832;2023-02-11T02:10:51;68.07;;;38.70;;
23113;SDS011;11726;50.122;8.832;2023-02-11T02:13:22;67.18;;;38.85;;
23113;SDS011;11726;50.122;8.832;2023-02-11T02:15:50;71.00;;;40.15;;
23113;SDS011;11726;50.122;8.832;2023-02-11T02:37:43;61.30;;;37.38;;
23113;SDS011;11726;50.122;8.832;2023-02-11T02:40:19;66.57;;;38.67;;
23113;SDS011;11726;50.122;8.832;2023-02-11T02:42:56;66.25;;;37.05;;
23113;SDS011;11726;50.122;8.832;2023-02-11T02:45:25;65.88;;;37.85;;
23113;SDS011;11726;50.122;8.832;2023-02-11T02:47:52;61.70;;;37.83;;
23113;SDS011;11726;50.122;8.832;2023-02-11T02:50:20;63.92;;;36.67;;
23113;SDS011;11726;50.122;8.832;2023-02-11T02:58:13;63.80;;;38.63;;
23113;SDS011;11726;50.122;8.832;2023-02-11T03:01:08;61.88;;;35.33;;
23113;SDS011;11726;50.122;8.832;2023-02-11T03:03:47;69.43;;;39.65;;
23113;SDS011;11726;50.122;8.832;2023-02-11T03:09:08;61.33;;;36.80;;
23113;SDS011;11726;50.122;8.832;2023-02-11T03:11:41;65.03;;;36.65;;
23113;SDS011;11726;50.122;8.832;2023-02-11T03:14:11;69.35;;;38.38;;
23113;SDS011;11726;50.122;8.832;2023-02-11T03:16:40;61.40;;;36.15;;
23113;SDS011;11726;50.122;8.832;2023-02-11T03:19:10;66.25;;;36.97;;
23113;SDS011;11726;50.122;8.832;2023-02-11T03:21:40;65.07;;;37.70;;
23113;SDS011;11726;50.122;8.832;2023-02-11T03:24:30;61.58;;;35.65;;
23113;SDS011;11726;50.122;8.832;2023-02-11T03:29:53;60.60;;;37.17;;
23113;SDS011;11726;50.122;8.832;2023-02-11T03:32:31;63.47;;;37.38;;
23113;SDS011;11726;50.122;8.832;2023-02-11T03:35:09;63.88;;;37.30;;
23113;SDS011;11726;50.122;8.832;2023-02-11T03:37:50;62.47;;;36.63;;
23113;SDS011;11726;50.122;8.832;2023-02-11T03:40:21;59.75;;;35.88;;
23113;SDS011;11726;50.122;8.832;2023-02-11T03:42:53;60.38;;;35.92;;
23113;SDS011;11726;50.122;8.832;2023-02-11T03:45:26;61.45;;;36.63;;
23113;SDS011;11726;50.122;8.832;2023-02-11T03:48:00;62.17;;;35.47;;
23113;SDS011;11726;50.122;8.832;2023-02-11T03:50:45;62.35;;;36.35;;
23113;SDS011;11726;50.122;8.832;2023-02-11T03:53:14;61.95;;;35.03;;
23113;SDS011;11726;50.122;8.832;2023-02-11T03:55:41;61.45;;;35.35;;
23113;SDS011;11726;50.122;8.832;2023-02-11T03:58:11;64.20;;;36.13;;
23113;SDS011;11726;50.122;8.832;2023-02-11T04:00:38;61.25;;;35.40;;
23113;SDS011;11726;50.122;8.832;2023-02-11T04:03:07;58.33;;;35.60;;
23113;SDS011;11726;50.122;8.832;2023-02-11T04:05:35;62.53;;;35.17;;
23113;SDS011;11726;50.122;8.832;2023-02-11T04:08:03;57.60;;;34.42;;
23113;SDS011;11726;50.122;8.832;2023-02-11T04:10:30;57.67;;;34.67;;
23113;SDS011;11726;50.122;8.832;2023-02-11T04:12:56;57.17;;;33.70;;
23113;SDS011;11726;50.122;8.832;2023-02-11T04:15:23;59.83;;;35.60;;
23113;SDS011;11726;50.122;8.832;2023-02-11T04:17:50;60.22;;;34.55;;
23113;SDS011;11726;50.122;8.832;2023-02-11T04:20:17;57.67;;;32.83;;
23113;SDS011;11726;50.122;8.832;2023-02-11T04:22:43;59.40;;;34.72;;
23113;SDS011;11726;50.122;8.832;2023-02-11T04:25:10;57.40;;;34.08;;
23113;SDS011;11726;50.122;8.832;2023-02-11T04:27:37;59.45;;;33.97;;
23113;SDS011;11726;50.122;8.832;2023-02-11T04:30:04;55.95;;;32.97;;
23113;SDS011;11726;50.122;8.832;2023-02-11T04:32:31;54.08;;;32.20;;
23113;SDS011;11726;50.122;8.832;2023-02-11T04:34:58;49.28;;;31.65;;
23113;SDS011;11726;50.122;8.832;2023-02-11T04:37:24;60.75;;;31.85;;
23113;SDS011;11726;50.122;8.832;2023-02-11T04:39:51;51.70;;;30.63;;
23113;SDS011;11726;50.122;8.832;2023-02-11T04:42:18;52.88;;;32.15;;
23113;SDS011;11726;50.122;8.832;2023-02-11T04:44:44;55.28;;;32.55;;
23113;SDS011;11726;50.122;8.832;2023-02-11T04:47:11;51.67;;;31.17;;
23113;SDS011;11726;50.122;8.832;2023-02-11T04:49:38;48.38;;;30.05;;
23113;SDS011;11726;50.122;8.832;2023-02-11T04:52:05;55.17;;;32.45;;
23113;SDS011;11726;50.122;8.832;2023-02-11T04:54:32;52.70;;;31.55;;
23113;SDS011;11726;50.122;8.832;2023-02-11T04:56:58;50.80;;;30.85;;
23113;SDS011;11726;50.122;8.832;2023-02-11T04:59:25;54.45;;;32.40;;
23113;SDS011;11726;50.122;8.832;2023-02-11T05:01:52;49.45;;;30.15;;
23113;SDS011;11726;50.122;8.832;2023-02-11T05:04:18;51.85;;;30.67;;
23113;SDS011;11726;50.122;8.832;2023-02-11T05:06:45;53.05;;;30.95;;
23113;SDS011;11726;50.122;8.832;2023-02-11T05:09:12;49.88;;;30.75;;
23113;SDS011;11726;50.122;8.832;2023-02-11T05:11:39;47.65;;;29.33;;
23113;SDS011;11726;50.122;8.832;2023-02-11T05:14:05;52.00;;;30.73;;
23113;SDS011;11726;50.122;8.832;2023-02-11T05:16:33;52.20;;;31.23;;
23113;SDS011;11726;50.122;8.832;2023-02-11T05:18:59;45.67;;;28.23;;
23113;SDS011;11726;50.122;8.832;2023-02-11T05:21:26;49.60;;;30.42;;
23113;SDS011;11726;50.122;8.832;2023-02-11T05:23:53;47.78;;;29.30;;
23113;SDS011;11726;50.122;8.832;2023-02-11T05:26:19;49.58;;;30.02;;
23113;SDS011;11726;50.122;8.832;2023-02-11T05:28:46;48.10;;;28.38;;
23113;SDS011;11726;50.122;8.832;2023-02-11T05:31:12;46.42;;;29.33;;
23113;SDS011;11726;50.122;8.832;2023-02-11T05:33:40;49.25;;;29.13;;
23113;SDS011;11726;50.122;8.832;2023-02-11T05:36:07;50.70;;;30.38;;
23113;SDS011;11726;50.122;8.832;2023-02-11T05:38:36;48.13;;;28.90;;
23113;SDS011;11726;50.122;8.832;2023-02-11T05:41:03;47.05;;;28.35;;
23113;SDS011;11726;50.122;8.832;2023-02-11T05:43:30;50.17;;;30.33;;
23113;SDS011;11726;50.122;8.832;2023-02-11T05:46:00;47.67;;;30.20;;
23113;SDS011;11726;50.122;8.832;2023-02-11T05:48:27;50.33;;;29.83;;
23113;SDS011;11726;50.122;8.832;2023-02-11T05:50:53;51.10;;;30.38;;
23113;SDS011;11726;50.122;8.832;2023-02-11T05:53:20;47.92;;;29.90;;
23113;SDS011;11726;50.122;8.832;2023-02-11T05:55:47;53.70;;;31.58;;
23113;SDS011;11726;50.122;8.832;2023-02-11T05:58:14;46.45;;;28.92;;
23113;SDS011;11726;50.122;8.832;2023-02-11T06:00:41;56.00;;;30.48;;
23113;SDS011;11726;50.122;8.832;2023-02-11T06:03:07;51.33;;;31.58;;
23113;SDS011;11726;50.122;8.832;2023-02-11T06:05:34;50.53;;;29.63;;
23113;SDS011;11726;50.122;8.832;2023-02-11T06:08:01;50.25;;;29.60;;
23113;SDS011;11726;50.122;8.832;2023-02-11T06:10:27;48.20;;;29.42;;
23113;SDS011;11726;50.122;8.832;2023-02-11T06:12:54;51.88;;;30.00;;
23113;SDS011;11726;50.122;8.832;2023-02-11T06:15:21;50.28;;;30.70;;
23113;SDS011;11726;50.122;8.832;2023-02-11T06:17:47;51.55;;;30.55;;
23113;SDS011;11726;50.122;8.832;2023-02-11T06:20:14;51.10;;;31.58;;
23113;SDS011;11726;50.122;8.832;2023-02-11T06:22:41;47.10;;;28.50;;
23113;SDS011;11726;50.122;8.832;2023-02-11T06:25:07;50.05;;;29.88;;
23113;SDS011;11726;50.122;8.832;2023-02-11T06:27:36;49.33;;;29.15;;
23113;SDS011;11726;50.122;8.832;2023-02-11T06:30:03;52.10;;;30.15;;
23113;SDS011;11726;50.122;8.832;2023-02-11T06:32:31;51.90;;;31.13;;
23113;SDS011;11726;50.122;8.832;2023-02-11T06:35:09;55.80;;;30.83;;
23113;SDS011;11726;50.122;8.832;2023-02-11T06:37:38;50.33;;;30.23;;
23113;SDS011;11726;50.122;8.832;2023-02-11T06:40:05;57.42;;;31.98;;
23113;SDS011;11726;50.122;8.832;2023-02-11T06:42:32;53.58;;;30.80;;
23113;SDS011;11726;50.122;8.832;2023-02-11T06:44:59;52.75;;;31.33;;
23113;SDS011;11726;50.122;8.832;2023-02-11T06:47:26;50.97;;;31.08;;
23113;SDS011;11726;50.122;8.832;2023-02-11T06:49:52;50.00;;;30.58;;
23113;SDS011;11726;50.122;8.832;2023-02-11T06:52:19;51.83;;;31.30;;
23113;SDS011;11726;50.122;8.832;2023-02-11T06:54:46;49.38;;;30.58;;
23113;SDS011;11726;50.122;8.832;2023-02-11T06:57:12;56.53;;;31.67;;
23113;SDS011;11726;50.122;8.832;2023-02-11T06:59:39;54.08;;;30.92;;
23113;SDS011;11726;50.122;8.832;2023-02-11T07:02:09;49.40;;;29.92;;
23113;SDS011;11726;50.122;8.832;2023-02-11T07:04:36;51.72;;;30.80;;
23113;SDS011;11726;50.122;8.832;2023-02-11T07:07:03;48.35;;;30.40;;
23113;SDS011;11726;50.122;8.832;2023-02-11T07:09:29;46.47;;;29.02;;
23113;SDS011;11726;50.122;8.832;2023-02-11T07:11:56;48.38;;;29.92;;
23113;SDS011;11726;50.122;8.832;2023-02-11T07:14:22;46.65;;;28.92;;
23113;SDS011;11726;50.122;8.832;2023-02-11T07:16:49;48.60;;;30.05;;
23113;SDS011;11726;50.122;8.832;2023-02-11T07:19:16;47.60;;;28.35;;
23113;SDS011;11726;50.122;8.832;2023-02-11T07:21:42;51.75;;;29.48;;
23113;SDS011;11726;50.122;8.832;2023-02-11T07:24:09;51.50;;;30.13;;
23113;SDS011;11726;50.122;8.832;2023-02-11T07:26:36;47.20;;;28.85;;
23113;SDS011;11726;50.122;8.832;2023-02-11T07:29:03;49.40;;;30.02;;
23113;SDS011;11726;50.122;8.832;2023-02-11T07:31:30;47.92;;;29.20;;
23113;SDS011;11726;50.122;8.832;2023-02-11T07:33:59;47.28;;;28.33;;
23113;SDS011;11726;50.122;8.832;2023-02-11T07:36:27;47.10;;;29.65;;
23113;SDS011;11726;50.122;8.832;2023-02-11T07:38:54;47.13;;;29.45;;
23113;SDS011;11726;50.122;8.832;2023-02-11T07:41:21;43.80;;;27.35;;
23113;SDS011;11726;50.122;8.832;2023-02-11T07:43:49;50.45;;;28.60;;
23113;SDS011;11726;50.122;8.832;2023-02-11T07:46:20;41.10;;;26.23;;
23113;SDS011;11726;50.122;8.832;2023-02-11T07:48:49;46.65;;;28.25;;
23113;SDS011;11726;50.122;8.832;2023-02-11T07:51:17;47.60;;;28.17;;
23113;SDS011;11726;50.122;8.832;2023-02-11T07:53:45;44.65;;;28.25;;
23113;SDS011;11726;50.122;8.832;2023-02-11T07:56:13;43.53;;;27.88;;
23113;SDS011;11726;50.122;8.832;2023-02-11T07:58:40;44.53;;;27.17;;
23113;SDS011;11726;50.122;8.832;2023-02-11T08:01:09;47.38;;;26.85;;
23113;SDS011;11726;50.122;8.832;2023-02-11T08:03:38;43.95;;;27.17;;
23113;SDS011;11726;50.122;8.832;2023-02-11T08:06:08;45.10;;;28.63;;
23113;SDS011;11726;50.122;8.832;2023-02-11T08:08:37;47.10;;;29.77;;
23113;SDS011;11726;50.122;8.832;2023-02-11T08:11:08;45.67;;;27.88;;
23113;SDS011;11726;50.122;8.832;2023-02-11T08:13:38;46.58;;;28.00;;
23113;SDS011;11726;50.122;8.832;2023-02-11T08:16:06;46.53;;;27.90;;
23113;SDS011;11726;50.122;8.832;2023-02-11T08:18:33;42.90;;;27.02;;
23113;SDS011;11726;50.122;8.832;2023-02-11T08:21:07;42.53;;;26.98;;
23113;SDS011;11726;50.122;8.832;2023-02-11T08:23:35;43.08;;;26.98;;
23113;SDS011;11726;50.122;8.832;2023-02-11T08:26:07;44.45;;;26.88;;
23113;SDS011;11726;50.122;8.832;2023-02-11T08:28:39;46.20;;;27.23;;
23113;SDS011;11726;50.122;8.832;2023-02-11T08:31:09;42.60;;;28.42;;
23113;SDS011;11726;50.122;8.832;2023-02-11T08:33:38;43.40;;;26.38;;
23113;SDS011;11726;50.122;8.832;2023-02-11T08:36:14;44.50;;;28.05;;
23113;SDS011;11726;50.122;8.832;2023-02-11T08:38:43;41.45;;;27.00;;
23113;SDS011;11726;50.122;8.832;2023-02-11T08:41:09;49.33;;;26.95;;
23113;SDS011;11726;50.122;8.832;2023-02-11T08:43:36;41.42;;;27.27;;
23113;SDS011;11726;50.122;8.832;2023-02-11T08:46:07;44.28;;;26.60;;
23113;SDS011;11726;50.122;8.832;2023-02-11T08:48:34;40.90;;;26.58;;
23113;SDS011;11726;50.122;8.832;2023-02-11T08:51:04;44.03;;;27.05;;
23113;SDS011;11726;50.122;8.832;2023-02-11T08:53:35;44.08;;;27.30;;
23113;SDS011;11726;50.122;8.832;2023-02-11T08:56:02;43.58;;;26.40;;
23113;SDS011;11726;50.122;8.832;2023-02-11T08:58:30;48.28;;;26.98;;
23113;SDS011;11726;50.122;8.832;2023-02-11T09:00:57;44.00;;;26.20;;
23113;SDS011;11726;50.122;8.832;2023-02-11T09:03:24;43.58;;;27.13;;
23113;SDS011;11726;50.122;8.832;2023-02-11T09:05:51;41.55;;;26.67;;
23113;SDS011;11726;50.122;8.832;2023-02-11T09:08:19;43.92;;;27.08;;
23113;SDS011;11726;50.122;8.832;2023-02-11T09:10:45;41.45;;;26.70;;
23113;SDS011;11726;50.122;8.832;2023-02-11T09:13:15;41.10;;;26.85;;
23113;SDS011;11726;50.122;8.832;2023-02-11T09:15:45;43.00;;;26.65;;
23113;SDS011;11726;50.122;8.832;2023-02-11T09:18:12;45.22;;;27.52;;
23113;SDS011;11726;50.122;8.832;2023-02-11T09:20:39;42.90;;;27.70;;
23113;SDS011;11726;50.122;8.832;2023-02-11T09:23:06;44.50;;;28.83;;
23113;SDS011;11726;50.122;8.832;2023-02-11T09:25:32;44.53;;;26.55;;
23113;SDS011;11726;50.122;8.832;2023-02-11T09:27:59;42.58;;;27.35;;
23113;SDS011;11726;50.122;8.832;2023-02-11T09:30:26;46.25;;;28.50;;
23113;SDS011;11726;50.122;8.832;2023-02-11T09:32:52;42.38;;;26.45;;
23113;SDS011;11726;50.122;8.832;2023-02-11T09:35:19;46.30;;;27.83;;
23113;SDS011;11726;50.122;8.832;2023-02-11T09:37:46;44.90;;;27.40;;
23113;SDS011;11726;50.122;8.832;2023-02-11T09:40:13;46.28;;;27.75;;
23113;SDS011;11726;50.122;8.832;2023-02-11T09:45:28;45.72;;;27.90;;
23113;SDS011;11726;50.122;8.832;2023-02-11T09:50:32;46.42;;;27.55;;
23113;SDS011;11726;50.122;8.832;2023-02-11T09:53:02;43.83;;;27.95;;
23113;SDS011;11726;50.122;8.832;2023-02-11T09:55:37;43.90;;;27.23;;
23113;SDS011;11726;50.122;8.832;2023-02-11T09:58:15;46.70;;;29.15;;
23113;SDS011;11726;50.122;8.832;2023-02-11T10:00:47;43.92;;;27.23;;
23113;SDS011;11726;50.122;8.832;2023-02-11T10:09:00;44.60;;;28.77;;
23113;SDS011;11726;50.122;8.832;2023-02-11T10:11:51;44.50;;;28.02;;
23113;SDS011;11726;50.122;8.832;2023-02-11T10:14:55;43.83;;;28.25;;
23113;SDS011;11726;50.122;8.832;2023-02-11T10:20:17;45.55;;;27.35;;
23113;SDS011;11726;50.122;8.832;2023-02-11T10:22:59;45.65;;;26.50;;
23113;SDS011;11726;50.122;8.832;2023-02-11T10:25:40;44.53;;;27.58;;
23113;SDS011;11726;50.122;8.832;2023-02-11T10:28:15;43.25;;;26.55;;
23113;SDS011;11726;50.122;8.832;2023-02-11T10:36:05;44.55;;;26.95;;
23113;SDS011;11726;50.122;8.832;2023-02-11T10:38:32;41.88;;;27.20;;
23113;SDS011;11726;50.122;8.832;2023-02-11T10:40:59;41.80;;;27.63;;
23113;SDS011;11726;50.122;8.832;2023-02-11T10:43:26;42.75;;;28.02;;
23113;SDS011;11726;50.122;8.832;2023-02-11T10:45:56;42.75;;;27.63;;
23113;SDS011;11726;50.122;8.832;2023-02-11T10:51:21;44.15;;;28.13;;
23113;SDS011;11726;50.122;8.832;2023-02-11T10:54:09;47.63;;;29.75;;
23113;SDS011;11726;50.122;8.832;2023-02-11T11:01:49;44.40;;;28.42;;
23113;SDS011;11726;50.122;8.832;2023-02-11T11:04:38;44.33;;;27.20;;
23113;SDS011;11726;50.122;8.832;2023-02-11T11:09:55;44.95;;;28.38;;
23113;SDS011;11726;50.122;8.832;2023-02-11T11:17:50;43.13;;;26.55;;
23113;SDS011;11726;50.122;8.832;2023-02-11T11:21:00;42.97;;;27.88;;
23113;SDS011;11726;50.122;8.832;2023-02-11T11:23:31;47.13;;;28.02;;
23113;SDS011;11726;50.122;8.832;2023-02-11T11:28:35;48.58;;;27.13;;
23113;SDS011;11726;50.122;8.832;2023-02-11T11:31:13;41.35;;;26.00;;
23113;SDS011;11726;50.122;8.832;2023-02-11T11:33:44;42.20;;;26.77;;
23113;SDS011;11726;50.122;8.832;2023-02-11T11:36:14;40.92;;;26.92;;
23113;SDS011;11726;50.122;8.832;2023-02-11T11:38:55;41.83;;;26.70;;
23113;SDS011;11726;50.122;8.832;2023-02-11T11:41:25;42.67;;;27.30;;
23113;SDS011;11726;50.122;8.832;2023-02-11T11:43:56;44.92;;;27.45;;
23113;SDS011;11726;50.122;8.832;2023-02-11T11:46:42;43.33;;;28.10;;
23113;SDS011;11726;50.122;8.832;2023-02-11T11:55:15;46.47;;;27.98;;
23113;SDS011;11726;50.122;8.832;2023-02-11T11:57:47;40.78;;;26.92;;
23113;SDS011;11726;50.122;8.832;2023-02-11T12:00:16;42.92;;;28.48;;
23113;SDS011;11726;50.122;8.832;2023-02-11T12:26:44;45.63;;;28.02;;
23113;SDS011;11726;50.122;8.832;2023-02-11T12:32:09;47.15;;;28.17;;
23113;SDS011;11726;50.122;8.832;2023-02-11T12:54:53;44.90;;;27.45;;
23113;SDS011;11726;50.122;8.832;2023-02-11T12:57:28;43.83;;;28.55;;
23113;SDS011;11726;50.122;8.832;2023-02-11T13:00:15;40.83;;;26.95;;
23113;SDS011;11726;50.122;8.832;2023-02-11T13:02:53;44.40;;;27.88;;
23113;SDS011;11726;50.122;8.832;2023-02-11T13:05:39;45.40;;;28.67;;
23113;SDS011;11726;50.122;8.832;2023-02-11T13:08:14;43.58;;;28.23;;
23113;SDS011;11726;50.122;8.832;2023-02-11T13:11:16;43.95;;;27.15;;
23113;SDS011;11726;50.122;8.832;2023-02-11T13:13:54;41.85;;;27.00;;
23113;SDS011;11726;50.122;8.832;2023-02-11T13:16:43;41.10;;;26.88;;
23113;SDS011;11726;50.122;8.832;2023-02-11T13:29:41;43.92;;;27.25;;
23113;SDS011;11726;50.122;8.832;2023-02-11T13:36:09;46.75;;;27.83;;
23113;SDS011;11726;50.122;8.832;2023-02-11T13:38:34;42.20;;;25.58;;
23113;SDS011;11726;50.122;8.832;2023-02-11T13:41:15;41.88;;;25.73;;
23113;SDS011;11726;50.122;8.832;2023-02-11T13:43:55;43.03;;;25.95;;
23113;SDS011;11726;50.122;8.832;2023-02-11T13:46:24;42.10;;;25.55;;
23113;SDS011;11726;50.122;8.832;2023-02-11T13:48:52;37.85;;;23.52;;
23113;SDS011;11726;50.122;8.832;2023-02-11T13:51:35;41.88;;;25.52;;
23113;SDS011;11726;50.122;8.832;2023-02-11T13:54:07;41.83;;;25.13;;
23113;SDS011;11726;50.122;8.832;2023-02-11T13:56:44;40.78;;;25.67;;
23113;SDS011;11726;50.122;8.832;2023-02-11T13:59:47;41.03;;;25.67;;
23113;SDS011;11726;50.122;8.832;2023-02-11T14:02:20;46.53;;;27.25;;
23113;SDS011;11726;50.122;8.832;2023-02-11T14:14:18;36.78;;;23.88;;
23113;SDS011;11726;50.122;8.832;2023-02-11T14:19:34;35.80;;;23.40;;
23113;SDS011;11726;50.122;8.832;2023-02-11T14:24:53;34.83;;;22.40;;
23113;SDS011;11726;50.122;8.832;2023-02-11T14:27:29;32.75;;;22.27;;
23113;SDS011;11726;50.122;8.832;2023-02-11T14:30:08;32.80;;;20.77;;
23113;SDS011;11726;50.122;8.832;2023-02-11T14:38:30;35.22;;;21.90;;
23113;SDS011;11726;50.122;8.832;2023-02-11T14:41:43;35.25;;;21.88;;
23113;SDS011;11726;50.122;8.832;2023-02-11T14:44:15;34.30;;;21.00;;
23113;SDS011;11726;50.122;8.832;2023-02-11T14:46:45;35.40;;;21.75;;
23113;SDS011;11726;50.122;8.832;2023-02-11T14:52:28;37.42;;;24.35;;
23113;SDS011;11726;50.122;8.832;2023-02-11T14:55:20;39.53;;;24.45;;
23113;SDS011;11726;50.122;8.832;2023-02-11T14:58:11;32.13;;;21.20;;
23113;SDS011;11726;50.122;8.832;2023-02-11T15:00:47;35.95;;;21.88;;
23113;SDS011;11726;50.122;8.832;2023-02-11T15:03:36;35.25;;;22.60;;
23113;SDS011;11726;50.122;8.832;2023-02-11T15:08:56;36.70;;;24.42;;
23113;SDS011;11726;50.122;8.832;2023-02-11T15:11:28;37.30;;;22.65;;
23113;SDS011;11726;50.122;8.832;2023-02-11T15:14:04;39.17;;;23.23;;
23113;SDS011;11726;50.122;8.832;2023-02-11T15:16:33;35.22;;;22.70;;
23113;SDS011;11726;50.122;8.832;2023-02-11T15:19:05;32.50;;;22.60;;
23113;SDS011;11726;50.122;8.832;2023-02-11T15:21:33;34.22;;;22.45;;
23113;SDS011;11726;50.122;8.832;2023-02-11T15:26:55;31.90;;;19.10;;
23113;SDS011;11726;50.122;8.832;2023-02-11T15:29:26;30.48;;;19.55;;
23113;SDS011;11726;50.122;8.832;2023-02-11T15:32:13;31.17;;;20.02;;
23113;SDS011;11726;50.122;8.832;2023-02-11T15:34:42;33.58;;;19.75;;
23113;SDS011;11726;50.122;8.832;2023-02-11T15:37:16;30.95;;;20.15;;
23113;SDS011;11726;50.122;8.832;2023-02-11T15:39:52;30.05;;;19.92;;
23113;SDS011;11726;50.122;8.832;2023-02-11T15:42:21;28.88;;;18.92;;
23113;SDS011;11726;50.122;8.832;2023-02-11T15:47:41;31.17;;;19.60;;
23113;SDS011;11726;50.122;8.832;2023-02-11T15:50:26;32.25;;;21.17;;
23113;SDS011;11726;50.122;8.832;2023-02-11T15:52:56;30.73;;;19.50;;
23113;SDS011;11726;50.122;8.832;2023-02-11T15:55:30;31.67;;;20.23;;
23113;SDS011;11726;50.122;8.832;2023-02-11T15:57:58;28.90;;;19.30;;
23113;SDS011;11726;50.122;8.832;2023-02-11T16:00:31;30.08;;;20.67;;
23113;SDS011;11726;50.122;8.832;2023-02-11T16:03:02;35.90;;;22.70;;
23113;SDS011;11726;50.122;8.832;2023-02-11T16:05:33;33.80;;;20.38;;
23113;SDS011;11726;50.122;8.832;2023-02-11T16:10:59;33.72;;;21.50;;
23113;SDS011;11726;50.122;8.832;2023-02-11T16:13:29;31.50;;;20.73;;
23113;SDS011;11726;50.122;8.832;2023-02-11T16:15:59;33.70;;;21.30;;
23113;SDS011;11726;50.122;8.832;2023-02-11T16:18:34;30.08;;;19.98;;
23113;SDS011;11726;50.122;8.832;2023-02-11T16:21:17;31.45;;;20.23;;
23113;SDS011;11726;50.122;8.832;2023-02-11T16:23:50;34.25;;;21.20;;
23113;SDS011;11726;50.122;8.832;2023-02-11T16:26:26;32.15;;;21.23;;
23113;SDS011;11726;50.122;8.832;2023-02-11T16:29:03;33.83;;;21.27;;
23113;SDS011;11726;50.122;8.832;2023-02-11T16:31:47;35.70;;;22.40;;
23113;SDS011;11726;50.122;8.832;2023-02-11T16:34:19;33.88;;;21.77;;
23113;SDS011;11726;50.122;8.832;2023-02-11T16:36:47;34.53;;;21.30;;
23113;SDS011;11726;50.122;8.832;2023-02-11T16:39:15;31.50;;;20.88;;
23113;SDS011;11726;50.122;8.832;2023-02-11T16:41:43;34.95;;;22.33;;
23113;SDS011;11726;50.122;8.832;2023-02-11T16:44:09;33.45;;;21.67;;
23113;SDS011;11726;50.122;8.832;2023-02-11T16:46:36;33.90;;;22.88;;
23113;SDS011;11726;50.122;8.832;2023-02-11T16:49:08;35.45;;;22.55;;
23113;SDS011;11726;50.122;8.832;2023-02-11T16:51:37;32.35;;;20.65;;
23113;SDS011;11726;50.122;8.832;2023-02-11T16:54:05;32.15;;;21.30;;
23113;SDS011;11726;50.122;8.832;2023-02-11T16:56:32;33.17;;;21.33;;
23113;SDS011;11726;50.122;8.832;2023-02-11T16:58:58;31.60;;;20.42;;
23113;SDS011;11726;50.122;8.832;2023-02-11T17:01:25;32.78;;;21.50;;
23113;SDS011;11726;50.122;8.832;2023-02-11T17:03:52;32.28;;;21.15;;
23113;SDS011;11726;50.122;8.832;2023-02-11T17:06:19;33.33;;;22.15;;
23113;SDS011;11726;50.122;8.832;2023-02-11T17:08:45;35.17;;;21.75;;
23113;SDS011;11726;50.122;8.832;2023-02-11T17:11:12;30.20;;;20.23;;
23113;SDS011;11726;50.122;8.832;2023-02-11T17:13:42;30.92;;;20.95;;
23113;SDS011;11726;50.122;8.832;2023-02-11T17:16:11;30.25;;;20.17;;
23113;SDS011;11726;50.122;8.832;2023-02-11T17:18:42;33.45;;;21.30;;
23113;SDS011;11726;50.122;8.832;2023-02-11T17:21:10;31.38;;;20.58;;
23113;SDS011;11726;50.122;8.832;2023-02-11T17:23:36;36.90;;;22.17;;
23113;SDS011;11726;50.122;8.832;2023-02-11T17:26:04;32.55;;;20.98;;
23113;SDS011;11726;50.122;8.832;2023-02-11T17:28:31;36.08;;;21.35;;
23113;SDS011;11726;50.122;8.832;2023-02-11T17:30:58;32.30;;;21.35;;
23113;SDS011;11726;50.122;8.832;2023-02-11T17:33:25;36.08;;;22.40;;
23113;SDS011;11726;50.122;8.832;2023-02-11T17:35:52;33.00;;;21.23;;